LTBSLGRP

Guest
Details From LTBS - DALAMAN
To LGRP - DIAGORAS
Flight Number -
Tags generated
Created
Modified
Stats Distance 39 nm / 72 km
Max Altitude 4,500 ft / 1,372 m
Waypoints 3
Social Downloads 1
Likes 0
Share VATSIM

Download

Looking for another format? Having issues loading an existing format? Contact us
Advertisement - Login to hide

Notes

Basic altitude profile: - Ascent Rate: 2500ft/min - Ascent Speed: 250kts - Cruise Altitude: 15000ft - Cruise Speed: 420kts - Descent Rate: 1500ft/min - Descent Speed: 250kts Options: - Use NATs: yes - Use PACOTS: yes - Use low airways: yes - Use high airways: yes

Route

LTBS SOTIV LGRP

ID Type Via Altitude Latitude Longitude Leg Dist Tot Dist Heading (true) Name
O LTBS APT - 0 ft / 0 m 36.71319˚ 28.79251˚ - 0 nm - DALAMAN
SOTIV FIX - 4,500 ft / 1,372 m 36.55000˚ 28.48333˚ 17 nm 17 nm 237° / 237° -
O LGRP APT - 0 ft / 0 m 36.40542˚ 28.08619˚ 21 nm 38 nm 246° / 246° DIAGORAS

Altitude Profile

Advertisement - Login to hide

LTBS

Details ICAO LTBS (DLM)
Name DALAMAN
Region Turkey
Timezone Europe/Istanbul (UTC+3.0)
Stats Elevation 20 ft / 6 m (AMSL)
Location 36.713189° 28.792513°
Runways 1
Magnetic Variation 4.921° E

METAR

LTBS 250520Z 06003KT 010V140 CAVOK 22/17 Q1007 NOSIG RMK RWY19 35004KT 310V080

Decode

TAF

Not found

Departure Runways

ID Width Length Bearing (true) Bearing (mag) Surface Threshold Offset Overrun Length
01 148 ft / 45 m 9,851 ft / 3,003 m 15.24° 10.32° Concrete 0 ft / 0 m 197 ft / 60 m
19 148 ft / 45 m 9,851 ft / 3,003 m 195.25° 190.33° Concrete 0 ft / 0 m 197 ft / 60 m

LGRP

Details ICAO LGRP (RHO)
Name DIAGORAS
Region Greece
Timezone Europe/Athens (UTC+3.0)
Stats Elevation 17 ft / 5 m (AMSL)
Location 36.405420° 28.086193°
Runways 1
Magnetic Variation 4.822° E

METAR

LGRP 250520Z 27010KT 9000 FEW010 SCT018 21/20 Q1006 NOSIG

Decode

TAF

TAF LGRP 250500Z 2506/2606 27015KT 9999 FEW010 SCT018 PROB30 TEMPO 2508/2515 5000 RA SCT010 BKN018

Decode

Destination Runways

ID Width Length Bearing (true) Bearing (mag) Surface Threshold Offset Overrun Length
07 148 ft / 45 m 10,830 ft / 3,301 m 69.97° 65.15° Asphalt 0 ft / 0 m 0 ft / 0 m
25 148 ft / 45 m 10,830 ft / 3,301 m 249.99° 245.17° Asphalt 0 ft / 0 m 0 ft / 0 m

Approach Navaids

Runway Type Ident Frequency Range Bearing (true) Bearing (mag) Slope Elevation
25 Localiser IRDS 110.30 MHz 18 nm / 33 km 250.45° 245.62° - 17 ft / 5 m (AMSL)
25 Glidescope IRDS 110.30 MHz 10 nm / 19 km 249.98° 245.16° 3.00° 17 ft / 5 m (AMSL)

Popular Alternatives